Route Details

Aircraft Information
Group: North America Fleet
Types: B738, B752, B762, B763
Route Data
Distance: 696nm
Duration: 2h 29m
Origin METAR: KJFK 171051Z 36003KT 10SM FEW035 SCT070 SCT100 SCT250 20/14 A3003 RMK AO2 RAB39E48 SLP167 P0000 T02000144
Dest. METAR: KRFD 171054Z 00000KT 10SM FEW250 13/11 A3015 RMK AO2 SLP207 T01330111
Freight Data
(for Aug 18, 2022)
Load Factor:
66%
Manifested Cargo: 79,190lbs
Financial History
Total Freight: 368,582lbs
Average Load: 0lbs/flt
Fuel Used: 139,983lbs
Avg. Fuel Used: 0lbs/flt
Fuel Expense: $53,574
Avg. Fuel Expense: $0
Avg. Fuel Cost: $0/lbs
Total Gross Income: $866,371
Pilot Pay: $1,334
Total Expenses: $115,997
Total Revenue: $693,422
Average Revenue: $0

Capitol Logistics 494




KJFK
John F Kennedy International Airport
New York, New York
KRFD
Chicago/Rockford International Airport
Rockford, Illinois

Activity Log

Date Flight Route Aircraft Duration
07/20/2022 CPX494 DCT RBV Q430 AIR DCT APE J30 JOT DCT QUOTE DCT B763 2h 12m
04/19/2022 CPX7487 COATE Q436 BOOTT FNT VIO OBK KRENA RFD B752 2h 08m
01/02/2022 CPX7487 COATE Q436 RAAKK Q438 BERYS FNT J94 OBK B763 2h 23m
11/12/2021 CPX7487 COATE Q436 EMMMA VIO BOWZO BESIE RFD B762 2h 25m
05/11/2021 CPX7487 COATE Q436 RAAKK Q438 BERYS FNT J94 OBK A30F 2h 04m
04/21/2021 CPX7487 COATE Q436 RAAKK Q438 BERYS FNT J94 OBK B752 2h 04m